الصفحة الرئيسية
METAR-TAF:

METAR-TAF

مطار :

أوديسا, أوكرانيا

دائرة عرض: 46-26N, خط طول: 030-46E, ارتفاع: 42 متر

مراقبة الطقس الحالي

تاريخ ووقت الإصدار 10 دقيقة قبل الساعة 01:00UTC
ريح 8 عقدة من الشمال
درجة الحرارة 23°درجة مئوية
الرطوبة 50%
ضغط 1012 hPa
الرؤية 10 كم أو أكثر
الغيوم لا تقل 1500 م ولا وجود لمزنة ركامية السحاب الأسود

METAR: UKOO 170100Z 36004MPS CAVOK 23/12 Q1012 R16/090060 NOSIG

زمن: 04:10 (01:10 UTC)

توقعات

تاريخ ووقت الإصدار 2ساعات و 4 دقيقة قبل الساعة 23:06UTC
التوقعات صالحة من17 الساعة 00 UTC إلى 17 الساعة 24 UTC
ريح 6 عقدة من الشمال
الرؤية: 6000 متر
غيوم متفرقة على ارتفاع 1500 قدم
غيوم متفرقة على ارتفاع 2000 قدم, مزنة ركامية.
مؤقت
من 17 الساعة 00 UTC إلى 17 الساعة 06 UTC
الرؤية: 2100 متر
غبار
نظرية الاحتمالات 40% :
مؤقت
من 17 الساعة 00 UTC إلى 17 الساعة 06 UTC
عاصفة رعدية, مطر خفيف

TAF: UKOO 162306Z 1700/1724 01003MPS 6000 SCT015 SCT020CB TX32/1712Z TN20/1702Z TEMPO 1700/1706 2100 DU PROB40 TEMPO 1700/1706 -TSRA

أرصاد الطقس والتوقعات من أكثر من 4000 مطار (تقارير الطقس للمطار METAR والتنبؤ بالطقس بالمطارTAF).

المحطات المتاحة هي النقط الصفراء والحمراء على الخريطة.

حرك المؤشر فوق النقطة لمعرفة اسم المحطة.

ثم انقر لمعرفة أرصاد وتوقعات الطقس.

لتغيير الخارطة: اضغط على الأزرار الخضراء مع رمز الصليب الأسود للتكبير. على الزر الأخضر مع شرطة للتصغير، أو على الأسهم الخضراء للخرائط المجاورة.


METAR-TAF: